sensor_id;sensor_type;location;lat;lon;timestamp;P1;durP1;ratioP1;P2;durP2;ratioP2
54388;SDS011;40975;50.390;8.640;2023-08-06T00:01:36;10.65;;;7.75;;
54388;SDS011;40975;50.390;8.640;2023-08-06T00:04:01;11.52;;;7.68;;
54388;SDS011;40975;50.390;8.640;2023-08-06T00:06:26;10.40;;;6.75;;
54388;SDS011;40975;50.390;8.640;2023-08-06T00:08:52;9.48;;;6.25;;
54388;SDS011;40975;50.390;8.640;2023-08-06T00:11:17;8.20;;;6.15;;
54388;SDS011;40975;50.390;8.640;2023-08-06T00:13:42;9.02;;;6.45;;
54388;SDS011;40975;50.390;8.640;2023-08-06T00:16:11;9.30;;;6.45;;
54388;SDS011;40975;50.390;8.640;2023-08-06T00:18:37;8.65;;;5.90;;
54388;SDS011;40975;50.390;8.640;2023-08-06T00:21:03;8.68;;;6.80;;
54388;SDS011;40975;50.390;8.640;2023-08-06T00:23:29;6.85;;;5.30;;
54388;SDS011;40975;50.390;8.640;2023-08-06T00:25:54;5.63;;;4.63;;
54388;SDS011;40975;50.390;8.640;2023-08-06T00:28:20;4.95;;;4.15;;
54388;SDS011;40975;50.390;8.640;2023-08-06T00:30:45;5.97;;;4.75;;
54388;SDS011;40975;50.390;8.640;2023-08-06T00:33:10;5.05;;;4.03;;
54388;SDS011;40975;50.390;8.640;2023-08-06T00:35:36;6.25;;;4.53;;
54388;SDS011;40975;50.390;8.640;2023-08-06T00:38:02;5.22;;;4.05;;
54388;SDS011;40975;50.390;8.640;2023-08-06T00:40:27;5.65;;;4.10;;
54388;SDS011;40975;50.390;8.640;2023-08-06T00:42:54;5.50;;;4.13;;
54388;SDS011;40975;50.390;8.640;2023-08-06T00:45:19;5.10;;;3.80;;
54388;SDS011;40975;50.390;8.640;2023-08-06T00:47:45;4.18;;;3.75;;
54388;SDS011;40975;50.390;8.640;2023-08-06T00:50:11;4.18;;;3.80;;
54388;SDS011;40975;50.390;8.640;2023-08-06T00:52:36;4.90;;;3.85;;
54388;SDS011;40975;50.390;8.640;2023-08-06T00:55:04;6.53;;;3.92;;
54388;SDS011;40975;50.390;8.640;2023-08-06T00:57:30;6.20;;;4.32;;
54388;SDS011;40975;50.390;8.640;2023-08-06T00:59:56;4.30;;;3.80;;
54388;SDS011;40975;50.390;8.640;2023-08-06T01:02:21;4.97;;;3.70;;
54388;SDS011;40975;50.390;8.640;2023-08-06T01:04:47;8.90;;;3.90;;
54388;SDS011;40975;50.390;8.640;2023-08-06T01:09:50;7.47;;;4.18;;
54388;SDS011;40975;50.390;8.640;2023-08-06T01:15:18;6.82;;;4.75;;
54388;SDS011;40975;50.390;8.640;2023-08-06T01:17:47;6.28;;;4.85;;
54388;SDS011;40975;50.390;8.640;2023-08-06T01:20:13;6.03;;;5.00;;
54388;SDS011;40975;50.390;8.640;2023-08-06T01:22:38;7.00;;;5.18;;
54388;SDS011;40975;50.390;8.640;2023-08-06T01:25:04;5.72;;;4.93;;
54388;SDS011;40975;50.390;8.640;2023-08-06T01:27:42;9.18;;;6.28;;
54388;SDS011;40975;50.390;8.640;2023-08-06T01:30:18;6.57;;;5.40;;
54388;SDS011;40975;50.390;8.640;2023-08-06T01:32:49;8.88;;;5.45;;
54388;SDS011;40975;50.390;8.640;2023-08-06T01:35:29;5.72;;;5.13;;
54388;SDS011;40975;50.390;8.640;2023-08-06T01:37:57;6.53;;;4.88;;
54388;SDS011;40975;50.390;8.640;2023-08-06T01:40:24;5.55;;;5.00;;
54388;SDS011;40975;50.390;8.640;2023-08-06T01:42:52;6.65;;;5.28;;
54388;SDS011;40975;50.390;8.640;2023-08-06T01:45:18;6.28;;;4.80;;
54388;SDS011;40975;50.390;8.640;2023-08-06T01:47:43;6.55;;;5.20;;
54388;SDS011;40975;50.390;8.640;2023-08-06T01:50:08;6.93;;;5.10;;
54388;SDS011;40975;50.390;8.640;2023-08-06T01:52:34;9.02;;;5.72;;
54388;SDS011;40975;50.390;8.640;2023-08-06T01:54:59;7.85;;;5.43;;
54388;SDS011;40975;50.390;8.640;2023-08-06T01:57:24;7.70;;;5.22;;
54388;SDS011;40975;50.390;8.640;2023-08-06T01:59:50;7.45;;;5.13;;
54388;SDS011;40975;50.390;8.640;2023-08-06T02:02:15;5.78;;;5.22;;
54388;SDS011;40975;50.390;8.640;2023-08-06T02:04:41;6.00;;;5.40;;
54388;SDS011;40975;50.390;8.640;2023-08-06T02:07:06;6.80;;;5.45;;
54388;SDS011;40975;50.390;8.640;2023-08-06T02:09:31;8.23;;;5.90;;
54388;SDS011;40975;50.390;8.640;2023-08-06T02:11:57;9.30;;;5.40;;
54388;SDS011;40975;50.390;8.640;2023-08-06T02:14:22;5.47;;;4.93;;
54388;SDS011;40975;50.390;8.640;2023-08-06T02:16:47;9.30;;;5.07;;
54388;SDS011;40975;50.390;8.640;2023-08-06T02:19:14;7.18;;;6.10;;
54388;SDS011;40975;50.390;8.640;2023-08-06T02:21:39;6.72;;;5.68;;
54388;SDS011;40975;50.390;8.640;2023-08-06T02:24:04;6.30;;;5.32;;
54388;SDS011;40975;50.390;8.640;2023-08-06T02:26:30;7.47;;;5.25;;
54388;SDS011;40975;50.390;8.640;2023-08-06T02:28:55;6.25;;;5.60;;
54388;SDS011;40975;50.390;8.640;2023-08-06T02:31:20;9.75;;;5.05;;
54388;SDS011;40975;50.390;8.640;2023-08-06T02:33:46;7.75;;;4.57;;
54388;SDS011;40975;50.390;8.640;2023-08-06T02:36:11;8.10;;;5.57;;
54388;SDS011;40975;50.390;8.640;2023-08-06T02:38:36;6.28;;;5.30;;
54388;SDS011;40975;50.390;8.640;2023-08-06T02:41:02;6.90;;;4.88;;
54388;SDS011;40975;50.390;8.640;2023-08-06T02:43:28;6.95;;;5.43;;
54388;SDS011;40975;50.390;8.640;2023-08-06T02:45:57;6.50;;;4.57;;
54388;SDS011;40975;50.390;8.640;2023-08-06T02:48:23;5.93;;;4.68;;
54388;SDS011;40975;50.390;8.640;2023-08-06T02:50:49;10.13;;;5.32;;
54388;SDS011;40975;50.390;8.640;2023-08-06T02:53:14;5.72;;;4.78;;
54388;SDS011;40975;50.390;8.640;2023-08-06T02:55:45;7.78;;;4.82;;
54388;SDS011;40975;50.390;8.640;2023-08-06T02:58:13;8.00;;;4.72;;
54388;SDS011;40975;50.390;8.640;2023-08-06T03:00:45;5.45;;;4.63;;
54388;SDS011;40975;50.390;8.640;2023-08-06T03:03:11;6.05;;;4.10;;
54388;SDS011;40975;50.390;8.640;2023-08-06T03:05:55;5.35;;;4.45;;
54388;SDS011;40975;50.390;8.640;2023-08-06T03:08:33;6.28;;;4.38;;
54388;SDS011;40975;50.390;8.640;2023-08-06T03:10:58;8.10;;;4.97;;
54388;SDS011;40975;50.390;8.640;2023-08-06T03:13:24;7.63;;;4.80;;
54388;SDS011;40975;50.390;8.640;2023-08-06T03:15:56;6.35;;;4.22;;
54388;SDS011;40975;50.390;8.640;2023-08-06T03:18:23;6.80;;;4.13;;
54388;SDS011;40975;50.390;8.640;2023-08-06T03:20:50;6.60;;;4.60;;
54388;SDS011;40975;50.390;8.640;2023-08-06T03:23:17;5.93;;;4.40;;
54388;SDS011;40975;50.390;8.640;2023-08-06T03:25:43;7.00;;;4.40;;
54388;SDS011;40975;50.390;8.640;2023-08-06T03:28:08;5.40;;;4.22;;
54388;SDS011;40975;50.390;8.640;2023-08-06T03:30:34;5.97;;;3.70;;
54388;SDS011;40975;50.390;8.640;2023-08-06T03:33:01;5.85;;;4.47;;
54388;SDS011;40975;50.390;8.640;2023-08-06T03:35:26;6.97;;;4.00;;
54388;SDS011;40975;50.390;8.640;2023-08-06T03:37:51;5.78;;;4.30;;
54388;SDS011;40975;50.390;8.640;2023-08-06T03:40:17;9.85;;;4.43;;
54388;SDS011;40975;50.390;8.640;2023-08-06T03:42:42;6.90;;;5.00;;
54388;SDS011;40975;50.390;8.640;2023-08-06T03:45:08;7.07;;;4.32;;
54388;SDS011;40975;50.390;8.640;2023-08-06T03:47:34;7.70;;;4.63;;
54388;SDS011;40975;50.390;8.640;2023-08-06T03:50:00;7.18;;;4.82;;
54388;SDS011;40975;50.390;8.640;2023-08-06T03:52:25;6.47;;;4.75;;
54388;SDS011;40975;50.390;8.640;2023-08-06T03:54:50;5.65;;;4.25;;
54388;SDS011;40975;50.390;8.640;2023-08-06T03:57:16;6.57;;;5.07;;
54388;SDS011;40975;50.390;8.640;2023-08-06T03:59:41;6.68;;;4.05;;
54388;SDS011;40975;50.390;8.640;2023-08-06T04:02:06;6.43;;;3.92;;
54388;SDS011;40975;50.390;8.640;2023-08-06T04:04:32;6.43;;;4.25;;
54388;SDS011;40975;50.390;8.640;2023-08-06T04:06:57;5.47;;;4.50;;
54388;SDS011;40975;50.390;8.640;2023-08-06T04:09:22;4.65;;;3.83;;
54388;SDS011;40975;50.390;8.640;2023-08-06T04:11:48;6.50;;;4.07;;
54388;SDS011;40975;50.390;8.640;2023-08-06T04:14:13;5.75;;;4.13;;
54388;SDS011;40975;50.390;8.640;2023-08-06T04:16:38;7.15;;;4.30;;
54388;SDS011;40975;50.390;8.640;2023-08-06T04:19:04;5.70;;;3.92;;
54388;SDS011;40975;50.390;8.640;2023-08-06T04:21:29;8.82;;;4.50;;
54388;SDS011;40975;50.390;8.640;2023-08-06T04:23:55;5.82;;;3.80;;
54388;SDS011;40975;50.390;8.640;2023-08-06T04:26:21;5.60;;;4.00;;
54388;SDS011;40975;50.390;8.640;2023-08-06T04:28:46;6.60;;;3.97;;
54388;SDS011;40975;50.390;8.640;2023-08-06T04:31:11;6.95;;;3.90;;
54388;SDS011;40975;50.390;8.640;2023-08-06T04:33:39;5.07;;;3.85;;
54388;SDS011;40975;50.390;8.640;2023-08-06T04:36:08;6.80;;;4.70;;
54388;SDS011;40975;50.390;8.640;2023-08-06T04:38:34;5.95;;;4.38;;
54388;SDS011;40975;50.390;8.640;2023-08-06T04:40:59;6.28;;;4.07;;
54388;SDS011;40975;50.390;8.640;2023-08-06T04:43:27;6.85;;;4.88;;
54388;SDS011;40975;50.390;8.640;2023-08-06T04:45:53;6.15;;;4.13;;
54388;SDS011;40975;50.390;8.640;2023-08-06T04:48:19;5.45;;;3.72;;
54388;SDS011;40975;50.390;8.640;2023-08-06T04:50:45;5.13;;;4.20;;
54388;SDS011;40975;50.390;8.640;2023-08-06T04:53:11;6.68;;;4.38;;
54388;SDS011;40975;50.390;8.640;2023-08-06T04:55:36;6.82;;;3.97;;
54388;SDS011;40975;50.390;8.640;2023-08-06T04:58:02;5.03;;;3.80;;
54388;SDS011;40975;50.390;8.640;2023-08-06T05:00:27;4.10;;;3.70;;
54388;SDS011;40975;50.390;8.640;2023-08-06T05:02:53;4.18;;;3.70;;
54388;SDS011;40975;50.390;8.640;2023-08-06T05:05:18;5.85;;;3.80;;
54388;SDS011;40975;50.390;8.640;2023-08-06T05:07:45;5.28;;;3.70;;
54388;SDS011;40975;50.390;8.640;2023-08-06T05:10:14;4.35;;;3.22;;
54388;SDS011;40975;50.390;8.640;2023-08-06T05:12:40;4.78;;;3.45;;
54388;SDS011;40975;50.390;8.640;2023-08-06T05:15:06;7.60;;;3.50;;
54388;SDS011;40975;50.390;8.640;2023-08-06T05:17:32;3.75;;;2.83;;
54388;SDS011;40975;50.390;8.640;2023-08-06T05:19:57;3.42;;;2.80;;
54388;SDS011;40975;50.390;8.640;2023-08-06T05:22:22;4.05;;;3.10;;
54388;SDS011;40975;50.390;8.640;2023-08-06T05:24:48;3.50;;;2.80;;
54388;SDS011;40975;50.390;8.640;2023-08-06T05:27:13;4.40;;;2.38;;
54388;SDS011;40975;50.390;8.640;2023-08-06T05:29:38;4.13;;;2.63;;
54388;SDS011;40975;50.390;8.640;2023-08-06T05:32:04;6.05;;;2.80;;
54388;SDS011;40975;50.390;8.640;2023-08-06T05:34:29;2.83;;;2.30;;
54388;SDS011;40975;50.390;8.640;2023-08-06T05:36:54;3.70;;;3.00;;
54388;SDS011;40975;50.390;8.640;2023-08-06T05:39:20;4.03;;;2.40;;
54388;SDS011;40975;50.390;8.640;2023-08-06T05:41:45;3.25;;;2.17;;
54388;SDS011;40975;50.390;8.640;2023-08-06T05:44:10;3.15;;;2.10;;
54388;SDS011;40975;50.390;8.640;2023-08-06T05:46:36;2.10;;;1.88;;
54388;SDS011;40975;50.390;8.640;2023-08-06T05:49:01;2.28;;;2.08;;
54388;SDS011;40975;50.390;8.640;2023-08-06T05:51:26;4.63;;;2.53;;
54388;SDS011;40975;50.390;8.640;2023-08-06T05:53:52;5.03;;;1.95;;
54388;SDS011;40975;50.390;8.640;2023-08-06T05:56:17;3.28;;;2.97;;
54388;SDS011;40975;50.390;8.640;2023-08-06T05:58:43;2.30;;;1.50;;
54388;SDS011;40975;50.390;8.640;2023-08-06T06:01:08;3.95;;;2.00;;
54388;SDS011;40975;50.390;8.640;2023-08-06T06:03:33;2.35;;;1.50;;
54388;SDS011;40975;50.390;8.640;2023-08-06T06:05:59;2.05;;;1.17;;
54388;SDS011;40975;50.390;8.640;2023-08-06T06:08:26;1.33;;;1.10;;
54388;SDS011;40975;50.390;8.640;2023-08-06T06:10:51;3.15;;;1.30;;
54388;SDS011;40975;50.390;8.640;2023-08-06T06:13:16;3.50;;;1.08;;
54388;SDS011;40975;50.390;8.640;2023-08-06T06:15:42;1.92;;;1.33;;
54388;SDS011;40975;50.390;8.640;2023-08-06T06:18:07;1.13;;;1.02;;
54388;SDS011;40975;50.390;8.640;2023-08-06T06:20:32;1.60;;;0.90;;
54388;SDS011;40975;50.390;8.640;2023-08-06T06:22:58;1.15;;;0.80;;
54388;SDS011;40975;50.390;8.640;2023-08-06T06:25:24;1.20;;;1.10;;
54388;SDS011;40975;50.390;8.640;2023-08-06T06:27:49;1.00;;;0.60;;
54388;SDS011;40975;50.390;8.640;2023-08-06T06:30:15;0.93;;;0.73;;
54388;SDS011;40975;50.390;8.640;2023-08-06T06:32:40;1.65;;;0.50;;
54388;SDS011;40975;50.390;8.640;2023-08-06T06:35:06;0.50;;;0.47;;
54388;SDS011;40975;50.390;8.640;2023-08-06T06:37:31;0.98;;;0.65;;
54388;SDS011;40975;50.390;8.640;2023-08-06T06:39:57;0.70;;;0.60;;
54388;SDS011;40975;50.390;8.640;2023-08-06T06:42:22;0.55;;;0.55;;
54388;SDS011;40975;50.390;8.640;2023-08-06T06:44:50;0.93;;;0.50;;
54388;SDS011;40975;50.390;8.640;2023-08-06T06:47:16;1.33;;;0.40;;
54388;SDS011;40975;50.390;8.640;2023-08-06T06:49:41;0.20;;;0.20;;
54388;SDS011;40975;50.390;8.640;2023-08-06T06:52:07;0.30;;;0.30;;
54388;SDS011;40975;50.390;8.640;2023-08-06T06:54:32;0.30;;;0.30;;
54388;SDS011;40975;50.390;8.640;2023-08-06T06:56:58;2.15;;;1.23;;
54388;SDS011;40975;50.390;8.640;2023-08-06T06:59:23;21.75;;;10.23;;
54388;SDS011;40975;50.390;8.640;2023-08-06T07:01:48;7.63;;;3.20;;
54388;SDS011;40975;50.390;8.640;2023-08-06T07:04:14;0.30;;;0.30;;
54388;SDS011;40975;50.390;8.640;2023-08-06T07:06:39;1.65;;;0.75;;
54388;SDS011;40975;50.390;8.640;2023-08-06T07:09:04;0.30;;;0.30;;
54388;SDS011;40975;50.390;8.640;2023-08-06T07:11:30;0.25;;;0.22;;
54388;SDS011;40975;50.390;8.640;2023-08-06T07:13:56;0.98;;;0.32;;
54388;SDS011;40975;50.390;8.640;2023-08-06T07:16:23;0.20;;;0.20;;
54388;SDS011;40975;50.390;8.640;2023-08-06T07:18:48;0.20;;;0.20;;
54388;SDS011;40975;50.390;8.640;2023-08-06T07:21:14;0.22;;;0.22;;
54388;SDS011;40975;50.390;8.640;2023-08-06T07:23:39;0.30;;;0.28;;
54388;SDS011;40975;50.390;8.640;2023-08-06T07:26:04;0.20;;;0.20;;
54388;SDS011;40975;50.390;8.640;2023-08-06T07:28:30;0.20;;;0.20;;
54388;SDS011;40975;50.390;8.640;2023-08-06T07:30:55;0.20;;;0.20;;
54388;SDS011;40975;50.390;8.640;2023-08-06T07:33:20;0.28;;;0.20;;
54388;SDS011;40975;50.390;8.640;2023-08-06T07:35:46;0.22;;;0.20;;
54388;SDS011;40975;50.390;8.640;2023-08-06T07:38:11;0.40;;;0.40;;
54388;SDS011;40975;50.390;8.640;2023-08-06T07:40:36;0.20;;;0.20;;
54388;SDS011;40975;50.390;8.640;2023-08-06T07:43:02;0.10;;;0.10;;
54388;SDS011;40975;50.390;8.640;2023-08-06T07:45:28;0.20;;;0.20;;
54388;SDS011;40975;50.390;8.640;2023-08-06T07:47:57;0.35;;;0.20;;
54388;SDS011;40975;50.390;8.640;2023-08-06T07:50:23;0.30;;;0.30;;
54388;SDS011;40975;50.390;8.640;2023-08-06T07:52:48;0.52;;;0.30;;
54388;SDS011;40975;50.390;8.640;2023-08-06T07:55:13;0.10;;;0.10;;
54388;SDS011;40975;50.390;8.640;2023-08-06T07:57:38;0.35;;;0.35;;
54388;SDS011;40975;50.390;8.640;2023-08-06T08:00:04;1.25;;;0.30;;
54388;SDS011;40975;50.390;8.640;2023-08-06T08:02:37;1.17;;;0.20;;
54388;SDS011;40975;50.390;8.640;2023-08-06T08:05:03;0.30;;;0.20;;
54388;SDS011;40975;50.390;8.640;2023-08-06T08:07:28;0.38;;;0.20;;
54388;SDS011;40975;50.390;8.640;2023-08-06T08:09:55;0.20;;;0.20;;
54388;SDS011;40975;50.390;8.640;2023-08-06T08:12:21;2.60;;;0.20;;
54388;SDS011;40975;50.390;8.640;2023-08-06T08:14:47;0.20;;;0.20;;
54388;SDS011;40975;50.390;8.640;2023-08-06T08:17:12;1.30;;;0.25;;
54388;SDS011;40975;50.390;8.640;2023-08-06T08:19:38;0.10;;;0.10;;
54388;SDS011;40975;50.390;8.640;2023-08-06T08:22:03;0.10;;;0.10;;
54388;SDS011;40975;50.390;8.640;2023-08-06T08:24:28;0.10;;;0.10;;
54388;SDS011;40975;50.390;8.640;2023-08-06T08:26:55;0.15;;;0.10;;
54388;SDS011;40975;50.390;8.640;2023-08-06T08:29:21;8.13;;;4.38;;
54388;SDS011;40975;50.390;8.640;2023-08-06T08:31:47;16.02;;;8.82;;
54388;SDS011;40975;50.390;8.640;2023-08-06T08:34:15;0.47;;;0.10;;
54388;SDS011;40975;50.390;8.640;2023-08-06T08:36:41;0.10;;;0.10;;
54388;SDS011;40975;50.390;8.640;2023-08-06T08:39:07;0.20;;;0.10;;
54388;SDS011;40975;50.390;8.640;2023-08-06T08:41:33;0.10;;;0.10;;
54388;SDS011;40975;50.390;8.640;2023-08-06T08:43:59;0.13;;;0.13;;
54388;SDS011;40975;50.390;8.640;2023-08-06T08:46:31;0.10;;;0.10;;
54388;SDS011;40975;50.390;8.640;2023-08-06T08:48:58;0.10;;;0.10;;
54388;SDS011;40975;50.390;8.640;2023-08-06T08:51:25;0.20;;;0.20;;
54388;SDS011;40975;50.390;8.640;2023-08-06T08:53:52;1.50;;;0.10;;
54388;SDS011;40975;50.390;8.640;2023-08-06T08:56:21;0.30;;;0.30;;
54388;SDS011;40975;50.390;8.640;2023-08-06T08:58:47;0.80;;;0.30;;
54388;SDS011;40975;50.390;8.640;2023-08-06T09:01:13;0.47;;;0.40;;
54388;SDS011;40975;50.390;8.640;2023-08-06T09:03:39;0.20;;;0.20;;
54388;SDS011;40975;50.390;8.640;2023-08-06T09:06:06;0.38;;;0.38;;
54388;SDS011;40975;50.390;8.640;2023-08-06T09:08:34;0.55;;;0.20;;
54388;SDS011;40975;50.390;8.640;2023-08-06T09:11:04;0.45;;;0.35;;
54388;SDS011;40975;50.390;8.640;2023-08-06T09:13:30;0.20;;;0.20;;
54388;SDS011;40975;50.390;8.640;2023-08-06T09:15:55;0.25;;;0.20;;
54388;SDS011;40975;50.390;8.640;2023-08-06T09:18:26;0.28;;;0.28;;
54388;SDS011;40975;50.390;8.640;2023-08-06T09:20:55;0.57;;;0.30;;
54388;SDS011;40975;50.390;8.640;2023-08-06T09:23:27;0.47;;;0.20;;
54388;SDS011;40975;50.390;8.640;2023-08-06T09:25:54;0.57;;;0.22;;
54388;SDS011;40975;50.390;8.640;2023-08-06T09:28:20;0.50;;;0.30;;
54388;SDS011;40975;50.390;8.640;2023-08-06T09:30:46;0.30;;;0.30;;
54388;SDS011;40975;50.390;8.640;2023-08-06T09:33:14;0.40;;;0.30;;
54388;SDS011;40975;50.390;8.640;2023-08-06T09:38:09;0.40;;;0.20;;
54388;SDS011;40975;50.390;8.640;2023-08-06T09:40:35;0.35;;;0.25;;
54388;SDS011;40975;50.390;8.640;2023-08-06T09:43:02;0.10;;;0.10;;
54388;SDS011;40975;50.390;8.640;2023-08-06T09:45:28;0.25;;;0.20;;
54388;SDS011;40975;50.390;8.640;2023-08-06T09:47:57;0.25;;;0.25;;
54388;SDS011;40975;50.390;8.640;2023-08-06T09:50:23;1.17;;;0.30;;
54388;SDS011;40975;50.390;8.640;2023-08-06T09:52:53;0.20;;;0.10;;
54388;SDS011;40975;50.390;8.640;2023-08-06T09:55:20;0.38;;;0.20;;
54388;SDS011;40975;50.390;8.640;2023-08-06T09:57:46;0.38;;;0.30;;
54388;SDS011;40975;50.390;8.640;2023-08-06T10:00:12;0.82;;;0.30;;
54388;SDS011;40975;50.390;8.640;2023-08-06T10:02:38;0.28;;;0.28;;
54388;SDS011;40975;50.390;8.640;2023-08-06T10:05:05;0.38;;;0.30;;
54388;SDS011;40975;50.390;8.640;2023-08-06T10:07:31;0.52;;;0.20;;
54388;SDS011;40975;50.390;8.640;2023-08-06T10:09:56;0.60;;;0.22;;
54388;SDS011;40975;50.390;8.640;2023-08-06T10:12:22;1.05;;;0.40;;
54388;SDS011;40975;50.390;8.640;2023-08-06T10:14:50;0.50;;;0.30;;
54388;SDS011;40975;50.390;8.640;2023-08-06T10:17:19;0.22;;;0.22;;
54388;SDS011;40975;50.390;8.640;2023-08-06T10:19:47;0.20;;;0.20;;
54388;SDS011;40975;50.390;8.640;2023-08-06T10:22:16;0.43;;;0.30;;
54388;SDS011;40975;50.390;8.640;2023-08-06T10:27:14;0.35;;;0.30;;
54388;SDS011;40975;50.390;8.640;2023-08-06T10:32:10;0.27;;;0.20;;
54388;SDS011;40975;50.390;8.640;2023-08-06T10:34:54;1.98;;;0.70;;
54388;SDS011;40975;50.390;8.640;2023-08-06T10:37:22;0.50;;;0.25;;
54388;SDS011;40975;50.390;8.640;2023-08-06T10:39:50;0.63;;;0.30;;
54388;SDS011;40975;50.390;8.640;2023-08-06T10:42:20;0.63;;;0.30;;
54388;SDS011;40975;50.390;8.640;2023-08-06T10:47:41;0.98;;;0.20;;
54388;SDS011;40975;50.390;8.640;2023-08-06T10:50:07;0.80;;;0.30;;
54388;SDS011;40975;50.390;8.640;2023-08-06T10:52:37;0.30;;;0.30;;
54388;SDS011;40975;50.390;8.640;2023-08-06T10:55:02;0.38;;;0.38;;
54388;SDS011;40975;50.390;8.640;2023-08-06T10:57:28;0.82;;;0.30;;
54388;SDS011;40975;50.390;8.640;2023-08-06T10:59:53;0.20;;;0.20;;
54388;SDS011;40975;50.390;8.640;2023-08-06T11:02:18;0.38;;;0.10;;
54388;SDS011;40975;50.390;8.640;2023-08-06T11:04:44;0.13;;;0.13;;
54388;SDS011;40975;50.390;8.640;2023-08-06T11:07:09;0.40;;;0.25;;
54388;SDS011;40975;50.390;8.640;2023-08-06T11:09:35;0.40;;;0.20;;
54388;SDS011;40975;50.390;8.640;2023-08-06T11:12:00;0.20;;;0.20;;
54388;SDS011;40975;50.390;8.640;2023-08-06T11:14:25;0.20;;;0.20;;
54388;SDS011;40975;50.390;8.640;2023-08-06T11:16:51;0.10;;;0.10;;
54388;SDS011;40975;50.390;8.640;2023-08-06T11:19:16;0.20;;;0.20;;
54388;SDS011;40975;50.390;8.640;2023-08-06T11:21:42;0.20;;;0.20;;
54388;SDS011;40975;50.390;8.640;2023-08-06T11:24:12;0.25;;;0.20;;
54388;SDS011;40975;50.390;8.640;2023-08-06T11:26:37;0.63;;;0.20;;
54388;SDS011;40975;50.390;8.640;2023-08-06T11:29:05;0.63;;;0.20;;
54388;SDS011;40975;50.390;8.640;2023-08-06T11:31:30;0.75;;;0.20;;
54388;SDS011;40975;50.390;8.640;2023-08-06T11:33:55;0.40;;;0.40;;
54388;SDS011;40975;50.390;8.640;2023-08-06T11:36:30;0.25;;;0.25;;
54388;SDS011;40975;50.390;8.640;2023-08-06T11:38:56;0.20;;;0.20;;
54388;SDS011;40975;50.390;8.640;2023-08-06T11:41:23;0.68;;;0.30;;
54388;SDS011;40975;50.390;8.640;2023-08-06T11:43:48;1.15;;;0.30;;
54388;SDS011;40975;50.390;8.640;2023-08-06T11:46:14;0.40;;;0.20;;
54388;SDS011;40975;50.390;8.640;2023-08-06T11:48:52;0.50;;;0.50;;
54388;SDS011;40975;50.390;8.640;2023-08-06T11:51:17;0.35;;;0.35;;
54388;SDS011;40975;50.390;8.640;2023-08-06T11:53:46;0.52;;;0.30;;
54388;SDS011;40975;50.390;8.640;2023-08-06T11:56:14;0.35;;;0.10;;
54388;SDS011;40975;50.390;8.640;2023-08-06T11:58:40;1.40;;;0.10;;
54388;SDS011;40975;50.390;8.640;2023-08-06T12:01:08;2.33;;;0.40;;
54388;SDS011;40975;50.390;8.640;2023-08-06T12:03:39;4.38;;;0.25;;
54388;SDS011;40975;50.390;8.640;2023-08-06T12:06:04;1.10;;;0.13;;
54388;SDS011;40975;50.390;8.640;2023-08-06T12:08:30;0.00;;;0.00;;
54388;SDS011;40975;50.390;8.640;2023-08-06T12:10:55;1.10;;;0.20;;
54388;SDS011;40975;50.390;8.640;2023-08-06T12:13:20;0.70;;;0.10;;
54388;SDS011;40975;50.390;8.640;2023-08-06T12:15:46;0.98;;;0.20;;
54388;SDS011;40975;50.390;8.640;2023-08-06T12:18:11;0.13;;;0.10;;
54388;SDS011;40975;50.390;8.640;2023-08-06T12:20:36;1.13;;;0.13;;
54388;SDS011;40975;50.390;8.640;2023-08-06T12:23:03;0.30;;;0.10;;
54388;SDS011;40975;50.390;8.640;2023-08-06T12:25:29;1.80;;;0.30;;
54388;SDS011;40975;50.390;8.640;2023-08-06T12:27:54;0.20;;;0.10;;
54388;SDS011;40975;50.390;8.640;2023-08-06T12:30:19;1.17;;;0.10;;
54388;SDS011;40975;50.390;8.640;2023-08-06T12:32:45;0.10;;;0.10;;
54388;SDS011;40975;50.390;8.640;2023-08-06T12:35:10;1.98;;;0.47;;
54388;SDS011;40975;50.390;8.640;2023-08-06T12:37:35;0.15;;;0.10;;
54388;SDS011;40975;50.390;8.640;2023-08-06T12:40:01;0.88;;;0.10;;
54388;SDS011;40975;50.390;8.640;2023-08-06T12:42:27;1.67;;;0.40;;
54388;SDS011;40975;50.390;8.640;2023-08-06T12:44:53;0.93;;;0.40;;
54388;SDS011;40975;50.390;8.640;2023-08-06T12:47:18;1.02;;;0.38;;
54388;SDS011;40975;50.390;8.640;2023-08-06T12:49:43;0.35;;;0.25;;
54388;SDS011;40975;50.390;8.640;2023-08-06T12:52:09;0.13;;;0.10;;
54388;SDS011;40975;50.390;8.640;2023-08-06T12:54:34;0.75;;;0.17;;
54388;SDS011;40975;50.390;8.640;2023-08-06T12:57:01;0.10;;;0.10;;
54388;SDS011;40975;50.390;8.640;2023-08-06T12:59:28;0.30;;;0.20;;
54388;SDS011;40975;50.390;8.640;2023-08-06T13:01:53;0.17;;;0.17;;
54388;SDS011;40975;50.390;8.640;2023-08-06T13:04:18;0.20;;;0.20;;
54388;SDS011;40975;50.390;8.640;2023-08-06T13:06:44;0.20;;;0.20;;
54388;SDS011;40975;50.390;8.640;2023-08-06T13:09:09;0.45;;;0.20;;
54388;SDS011;40975;50.390;8.640;2023-08-06T13:11:35;0.30;;;0.10;;
54388;SDS011;40975;50.390;8.640;2023-08-06T13:16:32;1.63;;;0.30;;
54388;SDS011;40975;50.390;8.640;2023-08-06T13:18:58;0.15;;;0.15;;
54388;SDS011;40975;50.390;8.640;2023-08-06T13:21:23;0.77;;;0.17;;
54388;SDS011;40975;50.390;8.640;2023-08-06T13:23:48;0.28;;;0.28;;
54388;SDS011;40975;50.390;8.640;2023-08-06T13:26:14;0.57;;;0.20;;
54388;SDS011;40975;50.390;8.640;2023-08-06T13:28:40;0.30;;;0.20;;
54388;SDS011;40975;50.390;8.640;2023-08-06T13:31:06;0.20;;;0.20;;
54388;SDS011;40975;50.390;8.640;2023-08-06T13:33:32;1.85;;;0.40;;
54388;SDS011;40975;50.390;8.640;2023-08-06T13:35:57;1.33;;;0.35;;
54388;SDS011;40975;50.390;8.640;2023-08-06T13:38:22;0.73;;;0.20;;
54388;SDS011;40975;50.390;8.640;2023-08-06T13:40:47;0.30;;;0.28;;
54388;SDS011;40975;50.390;8.640;2023-08-06T13:43:13;1.80;;;0.47;;
54388;SDS011;40975;50.390;8.640;2023-08-06T13:45:40;0.60;;;0.28;;
54388;SDS011;40975;50.390;8.640;2023-08-06T13:48:06;2.17;;;0.40;;
54388;SDS011;40975;50.390;8.640;2023-08-06T13:50:31;0.93;;;0.40;;
54388;SDS011;40975;50.390;8.640;2023-08-06T13:52:56;0.60;;;0.52;;
54388;SDS011;40975;50.390;8.640;2023-08-06T13:55:22;2.38;;;0.47;;
54388;SDS011;40975;50.390;8.640;2023-08-06T13:57:47;1.10;;;0.40;;
54388;SDS011;40975;50.390;8.640;2023-08-06T14:00:13;0.60;;;0.50;;
54388;SDS011;40975;50.390;8.640;2023-08-06T14:02:38;1.35;;;0.38;;
54388;SDS011;40975;50.390;8.640;2023-08-06T14:05:03;1.88;;;0.40;;
54388;SDS011;40975;50.390;8.640;2023-08-06T14:07:29;0.75;;;0.38;;
54388;SDS011;40975;50.390;8.640;2023-08-06T14:09:54;0.57;;;0.57;;
54388;SDS011;40975;50.390;8.640;2023-08-06T14:12:22;1.85;;;0.60;;
54388;SDS011;40975;50.390;8.640;2023-08-06T14:14:47;2.33;;;0.45;;
54388;SDS011;40975;50.390;8.640;2023-08-06T14:17:12;1.67;;;0.60;;
54388;SDS011;40975;50.390;8.640;2023-08-06T14:19:38;0.73;;;0.40;;
54388;SDS011;40975;50.390;8.640;2023-08-06T14:22:03;0.40;;;0.40;;
54388;SDS011;40975;50.390;8.640;2023-08-06T14:24:28;0.75;;;0.55;;
54388;SDS011;40975;50.390;8.640;2023-08-06T14:26:54;1.10;;;0.40;;
54388;SDS011;40975;50.390;8.640;2023-08-06T14:29:19;0.25;;;0.25;;
54388;SDS011;40975;50.390;8.640;2023-08-06T14:31:44;0.40;;;0.30;;
54388;SDS011;40975;50.390;8.640;2023-08-06T14:34:09;0.20;;;0.20;;
54388;SDS011;40975;50.390;8.640;2023-08-06T14:36:35;1.83;;;0.40;;
54388;SDS011;40975;50.390;8.640;2023-08-06T14:39:00;0.30;;;0.20;;
54388;SDS011;40975;50.390;8.640;2023-08-06T14:41:26;0.30;;;0.20;;
54388;SDS011;40975;50.390;8.640;2023-08-06T14:43:51;0.90;;;0.70;;
54388;SDS011;40975;50.390;8.640;2023-08-06T14:46:17;0.82;;;0.70;;
54388;SDS011;40975;50.390;8.640;2023-08-06T14:48:42;0.57;;;0.50;;
54388;SDS011;40975;50.390;8.640;2023-08-06T14:51:07;1.15;;;0.40;;
54388;SDS011;40975;50.390;8.640;2023-08-06T14:53:34;0.20;;;0.20;;
54388;SDS011;40975;50.390;8.640;2023-08-06T14:55:59;0.85;;;0.30;;
54388;SDS011;40975;50.390;8.640;2023-08-06T14:58:24;0.63;;;0.32;;
54388;SDS011;40975;50.390;8.640;2023-08-06T15:00:50;0.22;;;0.17;;